Terminal Aerodrome Forecast
Issued by NWS Albany, NY

Home | Current Version | Previous Version | Text Only | Print | Product List | Glossary On
Versions: 1 2 3 4 5 6 7 8 9 10 11 12 13 14 15 16
369
FTUS41 KALY 300521
TAFALB
TAF
KALB 300521Z 3006/3106 35003KT P6SM FEW070 SCT250
     FM301500 01005KT P6SM FEW050 BKN150
     FM302300 VRB03KT P6SM VCSH SCT050 OVC100=

USA.gov is the U.S. government's official web portal to all federal, state and local government web resources and services.